createdAt,value
2016-10-24T00:00:50.211Z,9.74
2016-10-24T00:01:50.226Z,9.69
2016-10-24T00:02:50.244Z,9.79
2016-10-24T00:03:50.251Z,9.74
2016-10-24T00:04:50.323Z,9.79
2016-10-24T00:05:50.282Z,9.73
2016-10-24T00:06:50.311Z,9.76
2016-10-24T00:07:50.321Z,9.73
2016-10-24T00:08:50.333Z,9.73
2016-10-24T00:09:50.349Z,9.69
2016-10-24T00:10:50.367Z,9.79
2016-10-24T00:11:50.386Z,9.76
2016-10-24T00:12:50.401Z,9.73
2016-10-24T00:13:50.413Z,9.69
2016-10-24T00:14:50.458Z,9.68
2016-10-24T00:15:50.440Z,9.65
2016-10-24T00:16:50.462Z,9.74
2016-10-24T00:17:50.474Z,9.74
2016-10-24T00:18:50.489Z,9.77
2016-10-24T00:19:50.509Z,9.76
2016-10-24T00:20:50.664Z,9.77
2016-10-24T00:21:50.661Z,9.77
2016-10-24T00:22:50.664Z,9.69
2016-10-24T00:23:50.681Z,9.65
2016-10-24T00:24:50.676Z,9.73
2016-10-24T00:25:50.693Z,9.83
2016-10-24T00:26:50.730Z,9.8
2016-10-24T00:27:50.718Z,9.74
2016-10-24T00:28:50.882Z,9.69
2016-10-24T00:29:50.858Z,9.76
2016-10-24T00:30:50.901Z,9.76
2016-10-24T00:31:50.898Z,9.76
2016-10-24T00:32:50.813Z,9.69
2016-10-24T00:33:51.137Z,9.69
2016-10-24T00:34:51.064Z,9.76
2016-10-24T00:35:50.884Z,9.77
2016-10-24T00:36:50.889Z,9.72
2016-10-24T00:37:50.897Z,9.76
2016-10-24T00:38:50.946Z,9.76
2016-10-24T00:39:51.062Z,9.72
2016-10-24T00:40:50.953Z,9.8
2016-10-24T00:41:50.972Z,9.69
2016-10-24T00:42:50.983Z,9.79
2016-10-24T00:43:50.983Z,9.72
2016-10-24T00:44:51.108Z,9.82
2016-10-24T00:45:51.018Z,9.62
2016-10-24T00:46:51.044Z,9.64
2016-10-24T00:47:51.074Z,9.69
2016-10-24T00:48:51.062Z,9.66
2016-10-24T00:49:51.090Z,9.66
2016-10-24T00:50:51.087Z,9.66
2016-10-24T00:51:51.018Z,9.62
2016-10-24T00:52:51.040Z,9.82
2016-10-24T00:53:51.055Z,9.66
2016-10-24T00:54:51.074Z,9.8
2016-10-24T00:55:51.087Z,9.64
2016-10-24T00:56:51.129Z,9.66
2016-10-24T00:57:51.117Z,9.79
2016-10-24T00:58:51.136Z,9.74
2016-10-24T00:59:51.150Z,9.77
2016-10-24T01:00:51.176Z,9.66
2016-10-24T01:01:51.185Z,9.82
2016-10-24T01:02:51.214Z,9.77
2016-10-24T01:03:51.216Z,9.72
2016-10-24T01:04:51.243Z,9.76
2016-10-24T01:05:51.244Z,9.77
2016-10-24T01:06:51.271Z,9.61
2016-10-24T01:07:51.291Z,9.76
2016-10-24T01:08:51.296Z,9.76
2016-10-24T01:09:51.313Z,9.72
2016-10-24T01:10:51.338Z,9.82
2016-10-24T01:11:51.362Z,9.62
2016-10-24T01:12:51.370Z,9.64
2016-10-24T01:13:51.694Z,9.66
2016-10-24T01:14:51.397Z,9.66
2016-10-24T01:15:51.761Z,9.65
2016-10-24T01:16:51.434Z,9.64
2016-10-24T01:17:51.444Z,9.77
2016-10-24T01:18:51.457Z,9.77
2016-10-24T01:19:51.470Z,9.66
2016-10-24T01:20:51.535Z,9.66
2016-10-24T01:21:51.503Z,9.76
2016-10-24T01:22:51.527Z,9.68
2016-10-24T01:23:51.569Z,9.65
2016-10-24T01:24:51.551Z,9.66
2016-10-24T01:25:51.571Z,9.66
2016-10-24T01:26:51.585Z,9.65
2016-10-24T01:27:51.584Z,9.8
2016-10-24T01:28:51.615Z,9.68
2016-10-24T01:29:51.623Z,9.72
2016-10-24T01:30:51.643Z,9.66
2016-10-24T01:31:51.658Z,9.66
2016-10-24T01:32:51.684Z,9.8
2016-10-24T01:33:51.698Z,9.76
2016-10-24T01:34:51.713Z,9.79
2016-10-24T01:35:51.724Z,9.68
2016-10-24T01:36:51.732Z,9.76
2016-10-24T01:37:51.742Z,9.65
2016-10-24T01:38:51.772Z,9.61
2016-10-24T01:39:51.786Z,9.65
2016-10-24T01:40:51.794Z,9.83
2016-10-24T01:41:51.865Z,9.79
2016-10-24T01:42:51.826Z,9.69
2016-10-24T01:43:51.851Z,9.66
2016-10-24T01:44:51.861Z,9.76
2016-10-24T01:45:51.886Z,9.66
2016-10-24T01:46:51.904Z,9.68
2016-10-24T01:47:51.909Z,9.65
2016-10-24T01:48:51.921Z,9.79
2016-10-24T01:49:51.949Z,9.64
2016-10-24T01:50:51.971Z,9.79
2016-10-24T01:51:51.979Z,9.72
2016-10-24T01:52:51.987Z,9.68
2016-10-24T01:53:52.002Z,9.76
2016-10-24T01:54:52.013Z,9.79
2016-10-24T01:55:52.033Z,9.76
2016-10-24T01:56:52.058Z,9.68
2016-10-24T01:57:52.082Z,9.8
2016-10-24T01:58:52.086Z,9.87
2016-10-24T01:59:52.089Z,9.65
2016-10-24T02:00:52.113Z,9.69
2016-10-24T02:01:52.148Z,9.73
2016-10-24T02:02:52.149Z,9.77
2016-10-24T02:03:52.151Z,9.69
2016-10-24T02:04:52.175Z,9.65
2016-10-24T02:05:52.195Z,9.66
2016-10-24T02:06:52.208Z,9.74
2016-10-24T02:07:52.224Z,9.66
2016-10-24T02:08:52.251Z,9.66
2016-10-24T02:09:52.378Z,9.69
2016-10-24T02:10:52.391Z,9.8
2016-10-24T02:11:52.400Z,9.66
2016-10-24T02:12:52.391Z,9.65
2016-10-24T02:13:52.407Z,9.82
2016-10-24T02:14:52.457Z,9.68
2016-10-24T02:15:52.584Z,9.65
2016-10-24T02:16:52.603Z,9.68
2016-10-24T02:17:52.613Z,9.86
2016-10-24T02:18:52.620Z,9.73
2016-10-24T02:19:52.632Z,9.66
2016-10-24T02:20:52.531Z,9.84
2016-10-24T02:21:52.570Z,9.76
2016-10-24T02:22:52.548Z,9.64
2016-10-24T02:23:52.693Z,9.69
2016-10-24T02:24:52.693Z,9.76
2016-10-24T02:25:52.702Z,9.66
2016-10-24T02:26:52.712Z,9.69
2016-10-24T02:27:52.722Z,9.69
2016-10-24T02:28:52.733Z,9.77
2016-10-24T02:29:52.731Z,9.74
2016-10-24T02:30:52.737Z,9.83
2016-10-24T02:31:52.749Z,9.77
2016-10-24T02:32:52.732Z,9.74
2016-10-24T02:33:52.731Z,9.74
2016-10-24T02:34:52.742Z,9.79
2016-10-24T02:35:52.744Z,9.72
2016-10-24T02:36:52.751Z,9.74
2016-10-24T02:37:52.811Z,9.74
2016-10-24T02:38:52.783Z,9.76
2016-10-24T02:39:52.775Z,9.76
2016-10-24T02:40:52.779Z,9.68
2016-10-24T02:41:52.802Z,9.77
2016-10-24T02:42:52.810Z,9.79
2016-10-24T02:43:52.804Z,9.83
2016-10-24T02:44:52.812Z,9.74
2016-10-24T02:45:52.824Z,9.74
2016-10-24T02:46:52.841Z,9.72
2016-10-24T02:47:52.864Z,9.76
2016-10-24T02:48:52.881Z,9.76
2016-10-24T02:49:52.889Z,9.76
2016-10-24T02:50:52.906Z,9.77
2016-10-24T02:51:52.922Z,9.73
2016-10-24T02:52:52.929Z,9.74
2016-10-24T02:53:52.956Z,9.65
2016-10-24T02:54:52.975Z,9.72
2016-10-24T02:55:52.977Z,9.77
2016-10-24T02:56:52.996Z,9.76
2016-10-24T02:57:53.012Z,9.79
2016-10-24T02:58:53.033Z,9.77
2016-10-24T02:59:53.057Z,9.77
2016-10-24T03:00:53.062Z,9.79
2016-10-24T03:01:53.076Z,9.74
2016-10-24T03:02:53.121Z,9.74
2016-10-24T03:03:53.109Z,9.73
2016-10-24T03:04:53.154Z,9.79
2016-10-24T03:05:53.172Z,9.72
2016-10-24T03:06:53.157Z,9.77
2016-10-24T03:07:53.167Z,9.68
2016-10-24T03:08:53.629Z,9.73
2016-10-24T03:09:53.320Z,9.76
2016-10-24T03:10:53.329Z,9.79
2016-10-24T03:11:53.476Z,9.76
2016-10-24T03:12:53.487Z,9.79
2016-10-24T03:13:53.818Z,9.77
2016-10-24T03:14:53.368Z,9.74
2016-10-24T03:15:53.523Z,9.76
2016-10-24T03:16:53.537Z,9.73
2016-10-24T03:17:53.541Z,9.76
2016-10-24T03:18:53.549Z,9.76
2016-10-24T03:19:53.563Z,9.72
2016-10-24T03:20:53.596Z,9.76
2016-10-24T03:21:53.611Z,9.82
2016-10-24T03:22:53.516Z,9.76
2016-10-24T03:23:53.623Z,9.72
2016-10-24T03:24:53.616Z,9.77
2016-10-24T03:25:53.644Z,9.72
2016-10-24T03:26:53.656Z,9.72
2016-10-24T03:27:53.649Z,9.79
2016-10-24T03:28:53.663Z,9.76
2016-10-24T03:29:53.659Z,9.73
2016-10-24T03:30:53.669Z,9.82
2016-10-24T03:31:53.654Z,9.76
2016-10-24T03:32:53.655Z,9.73
2016-10-24T03:33:53.657Z,9.77
2016-10-24T03:34:53.669Z,9.79
2016-10-24T03:35:53.670Z,9.76
2016-10-24T03:36:53.686Z,9.74
2016-10-24T03:37:53.759Z,9.83
2016-10-24T03:38:53.660Z,9.82
2016-10-24T03:39:53.685Z,9.82
2016-10-24T03:40:53.695Z,9.8
2016-10-24T03:41:53.710Z,9.86
2016-10-24T03:42:53.733Z,9.79
2016-10-24T03:43:53.747Z,9.73
2016-10-24T03:44:53.757Z,9.77
2016-10-24T03:45:53.777Z,9.8
2016-10-24T03:46:53.835Z,9.79
2016-10-24T03:47:53.846Z,9.73
2016-10-24T03:48:53.833Z,9.76
2016-10-24T03:49:53.840Z,9.77
2016-10-24T03:50:53.853Z,9.8
2016-10-24T03:51:53.869Z,9.79
2016-10-24T03:52:53.891Z,9.74
2016-10-24T03:53:53.896Z,9.76
2016-10-24T03:54:53.914Z,9.8
2016-10-24T03:55:54.242Z,9.76
2016-10-24T03:56:53.953Z,9.76
2016-10-24T03:57:53.997Z,9.79
2016-10-24T03:58:53.979Z,9.79
2016-10-24T03:59:54.192Z,9.76
2016-10-24T04:00:54.010Z,9.73
2016-10-24T04:01:54.029Z,9.74
2016-10-24T04:02:54.049Z,9.79
2016-10-24T04:03:54.062Z,9.76
2016-10-24T04:04:54.074Z,9.76
2016-10-24T04:05:54.088Z,9.74
2016-10-24T04:06:54.096Z,9.77
2016-10-24T04:07:54.126Z,9.79
2016-10-24T04:08:54.140Z,9.73
2016-10-24T04:09:54.152Z,9.8
2016-10-24T04:10:54.167Z,9.74
2016-10-24T04:11:54.184Z,9.76
2016-10-24T04:12:54.204Z,9.77
2016-10-24T04:13:54.407Z,9.69
2016-10-24T04:14:54.231Z,9.72
2016-10-24T04:15:54.275Z,9.69
2016-10-24T04:16:54.260Z,9.76
2016-10-24T04:17:54.485Z,9.76
2016-10-24T04:18:54.291Z,9.73
2016-10-24T04:19:54.304Z,9.68
2016-10-24T04:20:54.331Z,9.76
2016-10-24T04:21:54.340Z,9.73
2016-10-24T04:22:54.586Z,9.73
2016-10-24T04:23:54.482Z,9.77
2016-10-24T04:24:54.578Z,9.72
2016-10-24T04:25:54.572Z,9.76
2016-10-24T04:26:54.558Z,9.82
2016-10-24T04:27:54.431Z,9.73
2016-10-24T04:28:54.481Z,9.76
2016-10-24T04:29:54.473Z,9.73
2016-10-24T04:30:54.483Z,9.73
2016-10-24T04:31:54.499Z,9.79
2016-10-24T04:32:54.508Z,9.77
2016-10-24T04:33:54.565Z,9.84
2016-10-24T04:34:54.553Z,9.73
2016-10-24T04:35:54.557Z,9.77
2016-10-24T04:36:54.726Z,9.79
2016-10-24T04:37:54.585Z,9.72
2016-10-24T04:38:54.618Z,9.77
2016-10-24T04:39:54.638Z,9.74
2016-10-24T04:40:54.645Z,9.79
2016-10-24T04:41:54.661Z,9.76
2016-10-24T04:42:54.667Z,9.76
2016-10-24T04:43:54.736Z,9.77
2016-10-24T04:44:54.929Z,9.77
2016-10-24T04:45:54.719Z,9.74
2016-10-24T04:46:54.753Z,9.74
2016-10-24T04:47:54.749Z,9.73
2016-10-24T04:48:54.767Z,9.82
2016-10-24T04:49:54.895Z,9.76
2016-10-24T04:50:54.807Z,9.76
2016-10-24T04:51:54.829Z,9.82
2016-10-24T04:52:54.836Z,9.72
2016-10-24T04:53:54.839Z,9.76
2016-10-24T04:54:54.847Z,9.74
2016-10-24T04:55:54.868Z,9.77
2016-10-24T04:56:54.895Z,9.82
2016-10-24T04:57:54.907Z,9.8
2016-10-24T04:58:54.923Z,9.79
2016-10-24T04:59:54.939Z,9.82
2016-10-24T05:00:54.950Z,9.82
2016-10-24T05:01:54.963Z,9.82
2016-10-24T05:02:54.988Z,9.76
2016-10-24T05:03:54.996Z,9.82
2016-10-24T05:04:55.023Z,9.8
2016-10-24T05:05:55.031Z,9.8
2016-10-24T05:06:55.038Z,9.84
2016-10-24T05:07:55.066Z,9.84
2016-10-24T05:08:55.081Z,9.8
2016-10-24T05:09:55.104Z,9.8
2016-10-24T05:10:55.119Z,9.79
2016-10-24T05:11:55.116Z,9.8
2016-10-24T05:12:55.179Z,9.73
2016-10-24T05:13:55.153Z,9.8
2016-10-24T05:14:55.170Z,9.8
2016-10-24T05:15:55.277Z,9.8
2016-10-24T05:16:55.368Z,9.8
2016-10-24T05:17:55.229Z,9.82
2016-10-24T05:18:55.242Z,9.74
2016-10-24T05:19:55.451Z,9.84
2016-10-24T05:20:55.260Z,9.79
2016-10-24T05:21:55.368Z,9.8
2016-10-24T05:22:55.378Z,9.83
2016-10-24T05:23:55.416Z,9.79
2016-10-24T05:24:55.320Z,9.8
2016-10-24T05:25:55.341Z,9.82
2016-10-24T05:26:55.355Z,9.8
2016-10-24T05:27:55.395Z,9.76
2016-10-24T05:28:55.395Z,9.76
2016-10-24T05:29:55.445Z,9.73
2016-10-24T05:30:55.417Z,9.74
2016-10-24T05:31:55.445Z,9.82
2016-10-24T05:32:55.770Z,9.74
2016-10-24T05:33:55.592Z,9.74
2016-10-24T05:34:55.678Z,9.72
2016-10-24T05:35:55.641Z,9.77
2016-10-24T05:36:55.638Z,9.74
2016-10-24T05:37:55.641Z,9.66
2016-10-24T05:38:55.657Z,9.73
2016-10-24T05:39:55.665Z,9.84
2016-10-24T05:40:55.678Z,9.84
2016-10-24T05:41:55.670Z,9.82
2016-10-24T05:42:55.655Z,9.87
2016-10-24T05:43:55.630Z,9.72
2016-10-24T05:44:55.674Z,9.84
2016-10-24T05:45:55.666Z,9.66
2016-10-24T05:46:55.667Z,9.83
2016-10-24T05:47:55.690Z,9.86
2016-10-24T05:48:55.714Z,9.68
2016-10-24T05:49:55.725Z,9.83
2016-10-24T05:50:55.735Z,9.79
2016-10-24T05:51:55.840Z,9.74
2016-10-24T05:52:55.883Z,9.74
2016-10-24T05:53:55.785Z,9.8
2016-10-24T05:54:55.806Z,9.72
2016-10-24T05:55:55.921Z,9.72
2016-10-24T05:56:55.828Z,9.72
2016-10-24T05:57:55.846Z,9.66
2016-10-24T05:58:55.869Z,9.76
2016-10-24T05:59:55.870Z,9.79
2016-10-24T06:00:56.004Z,9.68
2016-10-24T06:01:56.333Z,9.77
2016-10-24T06:02:55.976Z,9.79
2016-10-24T06:03:56.067Z,9.66
2016-10-24T06:04:56.075Z,9.79
2016-10-24T06:05:55.970Z,9.82
2016-10-24T06:06:55.997Z,9.73
2016-10-24T06:07:56.014Z,9.8
2016-10-24T06:08:56.014Z,9.66
2016-10-24T06:09:56.024Z,9.64
2016-10-24T06:10:56.058Z,9.83
2016-10-24T06:11:56.068Z,9.76
2016-10-24T06:12:56.075Z,9.64
2016-10-24T06:13:56.099Z,9.72
2016-10-24T06:14:56.104Z,9.69
2016-10-24T06:15:56.133Z,9.69
2016-10-24T06:16:56.138Z,9.73
2016-10-24T06:17:56.170Z,9.76
2016-10-24T06:18:56.174Z,9.79
2016-10-24T06:19:56.189Z,9.82
2016-10-24T06:20:56.208Z,9.74
2016-10-24T06:21:56.221Z,9.76
2016-10-24T06:22:56.237Z,9.74
2016-10-24T06:23:56.255Z,9.76
2016-10-24T06:24:56.263Z,9.83
2016-10-24T06:25:56.293Z,9.8
2016-10-24T06:26:56.440Z,9.84
2016-10-24T06:27:56.317Z,9.8
2016-10-24T06:28:56.336Z,9.83
2016-10-24T06:29:56.347Z,9.84
2016-10-24T06:30:56.368Z,9.87
2016-10-24T06:31:56.382Z,9.8
2016-10-24T06:32:56.400Z,9.84
2016-10-24T06:33:56.407Z,9.83
2016-10-24T06:34:56.434Z,9.8
2016-10-24T06:35:56.562Z,9.89
2016-10-24T06:36:56.502Z,9.91
2016-10-24T06:37:56.501Z,9.92
2016-10-24T06:38:56.496Z,9.92
2016-10-24T06:39:56.521Z,9.91
2016-10-24T06:40:56.523Z,9.89
2016-10-24T06:41:56.552Z,9.95
2016-10-24T06:42:56.574Z,9.92
2016-10-24T06:43:56.575Z,9.97
2016-10-24T06:44:56.580Z,9.98
2016-10-24T06:45:56.599Z,9.89
2016-10-24T06:46:56.611Z,9.95
2016-10-24T06:47:56.645Z,9.92
2016-10-24T06:48:56.654Z,9.98
2016-10-24T06:49:56.671Z,9.98
2016-10-24T06:50:56.719Z,9.95
2016-10-24T06:51:56.695Z,9.95
2016-10-24T06:52:56.708Z,10.02
2016-10-24T06:53:56.726Z,9.95
2016-10-24T06:54:56.747Z,10.1
2016-10-24T06:55:56.760Z,10.05
2016-10-24T06:56:56.781Z,10.16
2016-10-24T06:57:56.805Z,10.13
2016-10-24T06:58:56.824Z,10.12
2016-10-24T06:59:56.824Z,10.16
2016-10-24T07:00:56.847Z,10.16
2016-10-24T07:01:56.898Z,10.15
2016-10-24T07:02:56.879Z,10.23
2016-10-24T07:03:56.891Z,10.17
2016-10-24T07:04:56.901Z,10.13
2016-10-24T07:05:56.928Z,10.19
2016-10-24T07:06:56.946Z,10.19
2016-10-24T07:07:56.947Z,10.25
2016-10-24T07:08:56.973Z,10.33
2016-10-24T07:09:57.023Z,10.22
2016-10-24T07:10:57.001Z,10.23
2016-10-24T07:11:57.021Z,10.3
2016-10-24T07:12:57.247Z,10.22
2016-10-24T07:13:57.045Z,10.26
2016-10-24T07:14:57.062Z,10.28
2016-10-24T07:15:57.080Z,10.28
2016-10-24T07:16:57.087Z,10.33
2016-10-24T07:17:57.147Z,10.28
2016-10-24T07:18:57.134Z,10.3
2016-10-24T07:19:57.491Z,10.28
2016-10-24T07:20:57.157Z,10.25
2016-10-24T07:21:57.194Z,10.35
2016-10-24T07:22:57.197Z,10.37
2016-10-24T07:23:57.215Z,10.3
2016-10-24T07:24:57.226Z,10.35
2016-10-24T07:25:57.244Z,10.26
2016-10-24T07:26:57.256Z,10.33
2016-10-24T07:27:57.270Z,10.3
2016-10-24T07:28:57.280Z,10.42
2016-10-24T07:29:57.307Z,10.4
2016-10-24T07:30:57.320Z,10.44
2016-10-24T07:31:57.335Z,10.37
2016-10-24T07:32:57.346Z,10.41
2016-10-24T07:33:57.371Z,10.38
2016-10-24T07:34:57.391Z,10.42
2016-10-24T07:35:57.411Z,10.42
2016-10-24T07:36:57.408Z,10.41
2016-10-24T07:37:57.428Z,10.46
2016-10-24T07:38:57.444Z,10.46
2016-10-24T07:39:57.461Z,10.48
2016-10-24T07:40:57.480Z,10.49
2016-10-24T07:41:57.501Z,10.57
2016-10-24T07:42:57.506Z,10.53
2016-10-24T07:43:57.535Z,10.57
2016-10-24T07:44:57.552Z,10.6
2016-10-24T07:45:57.570Z,10.56
2016-10-24T07:46:57.568Z,10.56
2016-10-24T07:47:57.595Z,10.6
2016-10-24T07:48:57.616Z,10.6
2016-10-24T07:49:57.632Z,10.59
2016-10-24T07:50:57.655Z,10.68
2016-10-24T07:51:57.657Z,10.6
2016-10-24T07:52:57.671Z,10.64
2016-10-24T07:53:57.700Z,10.69
2016-10-24T07:54:57.716Z,10.67
2016-10-24T07:55:57.780Z,10.67
2016-10-24T07:56:57.780Z,10.75
2016-10-24T07:57:57.751Z,10.79
2016-10-24T07:58:57.772Z,10.76
2016-10-24T07:59:57.781Z,10.71
2016-10-24T08:00:57.806Z,10.79
2016-10-24T08:01:57.810Z,10.78
2016-10-24T08:02:57.834Z,10.92
2016-10-24T08:03:57.853Z,10.81
2016-10-24T08:04:57.864Z,10.82
2016-10-24T08:05:57.899Z,10.9
2016-10-24T08:06:57.895Z,10.86
2016-10-24T08:07:57.915Z,10.9
2016-10-24T08:08:57.934Z,10.93
2016-10-24T08:09:57.950Z,10.93
2016-10-24T08:10:57.987Z,10.97
2016-10-24T08:11:57.982Z,10.96
2016-10-24T08:12:58.004Z,11
2016-10-24T08:13:58.016Z,11.02
2016-10-24T08:14:58.034Z,11
2016-10-24T08:15:58.050Z,11
2016-10-24T08:16:58.063Z,11.05
2016-10-24T08:17:58.082Z,11.05
2016-10-24T08:18:58.102Z,11.05
2016-10-24T08:19:58.153Z,11.15
2016-10-24T08:20:58.131Z,11.18
2016-10-24T08:21:58.143Z,11.25
2016-10-24T08:22:58.165Z,11.15
2016-10-24T08:23:58.181Z,11.18
2016-10-24T08:24:58.205Z,11.27
2016-10-24T08:25:58.259Z,11.33
2016-10-24T08:26:58.230Z,11.36
2016-10-24T08:27:58.247Z,11.4
2016-10-24T08:28:58.264Z,11.43
2016-10-24T08:29:58.283Z,11.44
2016-10-24T08:30:58.291Z,11.45
2016-10-24T08:31:58.317Z,11.44
2016-10-24T08:32:58.335Z,11.45
2016-10-24T08:33:58.342Z,11.55
2016-10-24T08:34:58.363Z,11.65
2016-10-24T08:35:58.391Z,11.66
2016-10-24T08:36:58.393Z,11.63
2016-10-24T08:37:58.407Z,11.65
2016-10-24T08:38:58.435Z,11.75
2016-10-24T08:39:58.447Z,11.66
2016-10-24T08:40:58.461Z,11.72
2016-10-24T08:41:58.476Z,11.78
2016-10-24T08:42:58.491Z,11.8
2016-10-24T08:43:58.507Z,11.69
2016-10-24T08:44:58.531Z,11.84
2016-10-24T08:45:58.549Z,11.87
2016-10-24T08:46:58.566Z,11.94
2016-10-24T08:47:58.578Z,11.97
2016-10-24T08:48:58.605Z,12.03
2016-10-24T08:49:58.617Z,12.07
2016-10-24T08:50:58.643Z,12.1
2016-10-24T08:51:58.659Z,12.07
2016-10-24T08:52:58.655Z,12.09
2016-10-24T08:53:58.675Z,12.2
2016-10-24T08:54:58.699Z,12.18
2016-10-24T08:55:58.725Z,12.12
2016-10-24T08:56:58.733Z,12.12
2016-10-24T08:57:58.747Z,12.27
2016-10-24T08:58:58.758Z,12.2
2016-10-24T08:59:58.781Z,12.31
2016-10-24T09:00:58.795Z,12.25
2016-10-24T09:01:58.825Z,12.28
2016-10-24T09:02:58.849Z,12.27
2016-10-24T09:03:58.846Z,12.28
2016-10-24T09:04:58.862Z,12.37
2016-10-24T09:05:58.908Z,12.4
2016-10-24T09:06:58.904Z,12.42
2016-10-24T09:07:58.910Z,12.45
2016-10-24T09:08:58.928Z,12.29
2016-10-24T09:09:58.954Z,12.4
2016-10-24T09:10:58.983Z,12.42
2016-10-24T09:11:58.993Z,12.43
2016-10-24T09:12:58.998Z,12.43
2016-10-24T09:13:59.024Z,12.45
2016-10-24T09:14:59.044Z,12.49
2016-10-24T09:15:59.058Z,12.54
2016-10-24T09:16:59.068Z,12.62
2016-10-24T09:17:59.103Z,12.64
2016-10-24T09:18:59.115Z,12.68
2016-10-24T09:19:59.117Z,12.67
2016-10-24T09:20:59.146Z,12.61
2016-10-24T09:21:59.156Z,12.62
2016-10-24T09:22:59.226Z,12.61
2016-10-24T09:23:59.193Z,12.61
2016-10-24T09:24:59.210Z,12.76
2016-10-24T09:25:59.233Z,12.73
2016-10-24T09:26:59.564Z,12.75
2016-10-24T09:27:59.256Z,12.76
2016-10-24T09:28:59.284Z,12.76
2016-10-24T09:29:59.310Z,12.82
2016-10-24T09:30:59.324Z,12.78
2016-10-24T09:31:59.338Z,12.76
2016-10-24T09:32:59.347Z,12.82
2016-10-24T09:33:59.367Z,12.83
2016-10-24T09:34:59.389Z,12.85
2016-10-24T09:35:59.413Z,12.86
2016-10-24T09:36:59.418Z,12.83
2016-10-24T09:37:59.437Z,12.9
2016-10-24T09:38:59.457Z,12.9
2016-10-24T09:39:59.489Z,12.87
2016-10-24T09:40:59.503Z,12.9
2016-10-24T09:41:59.515Z,12.91
2016-10-24T09:42:59.533Z,12.93
2016-10-24T09:43:59.541Z,12.94
2016-10-24T09:44:59.562Z,12.91
2016-10-24T09:45:59.587Z,12.97
2016-10-24T09:46:59.717Z,12.86
2016-10-24T09:47:59.617Z,12.87
2016-10-24T09:48:59.737Z,12.91
2016-10-24T09:49:59.746Z,12.97
2016-10-24T09:50:59.756Z,12.95
2016-10-24T09:51:59.763Z,13
2016-10-24T09:52:59.758Z,12.94
2016-10-24T09:53:59.776Z,12.97
2016-10-24T09:54:59.780Z,13
2016-10-24T09:55:59.788Z,13.03
2016-10-24T09:56:59.784Z,12.95
2016-10-24T09:57:59.797Z,12.98
2016-10-24T09:58:59.929Z,12.98
2016-10-24T09:59:59.943Z,13
2016-10-24T10:00:59.955Z,12.97
2016-10-24T10:01:59.876Z,12.98
2016-10-24T10:03:00.008Z,13.04
2016-10-24T10:03:59.897Z,13.04
2016-10-24T10:04:59.906Z,13.05
2016-10-24T10:06:00.019Z,12.97
2016-10-24T10:07:00.023Z,13.08
2016-10-24T10:08:00.060Z,13.08
2016-10-24T10:09:00.070Z,12.98
2016-10-24T10:10:00.081Z,13.15
2016-10-24T10:11:00.015Z,13.04
2016-10-24T10:12:00.038Z,13.22
2016-10-24T10:13:00.049Z,13.16
2016-10-24T10:14:00.074Z,13.16
2016-10-24T10:15:00.088Z,13.13
2016-10-24T10:16:00.110Z,13.16
2016-10-24T10:17:00.163Z,13.25
2016-10-24T10:18:00.137Z,13.25
2016-10-24T10:19:00.162Z,13.2
2016-10-24T10:20:00.174Z,13.27
2016-10-24T10:21:00.190Z,13.2
2016-10-24T10:22:00.205Z,13.18
2016-10-24T10:23:00.230Z,13.28
2016-10-24T10:24:00.281Z,13.35
2016-10-24T10:25:00.308Z,13.31
2016-10-24T10:26:00.281Z,13.37
2016-10-24T10:27:00.295Z,13.35
2016-10-24T10:28:00.333Z,13.35
2016-10-24T10:29:00.330Z,13.35
2016-10-24T10:30:00.355Z,13.39
2016-10-24T10:31:00.373Z,13.37
2016-10-24T10:32:00.385Z,13.39
2016-10-24T10:33:00.422Z,13.33
2016-10-24T10:34:00.425Z,13.46
2016-10-24T10:35:00.447Z,13.44
2016-10-24T10:36:00.463Z,13.39
2016-10-24T10:37:00.480Z,13.41
2016-10-24T10:38:00.495Z,13.46
2016-10-24T10:39:00.523Z,13.47
2016-10-24T10:40:00.536Z,13.49
2016-10-24T10:41:00.549Z,13.49
2016-10-24T10:42:00.575Z,13.5
2016-10-24T10:43:00.581Z,13.5
2016-10-24T10:44:00.603Z,13.56
2016-10-24T10:45:00.633Z,13.56
2016-10-24T10:46:00.648Z,13.47
2016-10-24T10:47:00.656Z,13.49
2016-10-24T10:48:00.688Z,13.47
2016-10-24T10:49:00.708Z,13.53
2016-10-24T10:50:00.716Z,13.5
2016-10-24T10:51:00.734Z,13.54
2016-10-24T10:52:00.764Z,13.56
2016-10-24T10:53:00.767Z,13.59
2016-10-24T10:54:00.792Z,13.52
2016-10-24T10:55:00.808Z,13.6
2016-10-24T10:56:00.828Z,13.67
2016-10-24T10:57:00.843Z,13.6
2016-10-24T10:58:00.915Z,13.67
2016-10-24T10:59:00.879Z,13.62
2016-10-24T11:00:00.893Z,13.65
2016-10-24T11:01:00.920Z,13.67
2016-10-24T11:02:00.961Z,13.65
2016-10-24T11:03:00.973Z,13.72
2016-10-24T11:04:00.980Z,13.75
2016-10-24T11:05:00.994Z,13.72
2016-10-24T11:06:01.011Z,13.81
2016-10-24T11:07:01.045Z,13.77
2016-10-24T11:08:01.050Z,13.78
2016-10-24T11:09:01.069Z,13.81
2016-10-24T11:10:01.088Z,13.78
2016-10-24T11:11:01.123Z,13.77
2016-10-24T11:12:01.138Z,13.79
2016-10-24T11:13:01.189Z,13.85
2016-10-24T11:14:01.163Z,13.87
2016-10-24T11:15:01.182Z,13.77
2016-10-24T11:16:01.199Z,13.89
2016-10-24T11:17:01.212Z,13.81
2016-10-24T11:18:01.242Z,13.85
2016-10-24T11:19:01.247Z,13.9
2016-10-24T11:20:01.289Z,14.03
2016-10-24T11:21:01.298Z,13.99
2016-10-24T11:22:01.315Z,14.03
2016-10-24T11:23:01.326Z,14.07
2016-10-24T11:24:01.356Z,14.1
2016-10-24T11:25:01.380Z,14.1
2016-10-24T11:26:01.392Z,14.11
2016-10-24T11:27:01.412Z,14.17
2016-10-24T11:28:01.423Z,14.08
2016-10-24T11:29:01.448Z,14.17
2016-10-24T11:30:01.500Z,14.05
2016-10-24T11:31:01.480Z,14.08
2016-10-24T11:32:01.507Z,14.15
2016-10-24T11:33:01.510Z,14.07
2016-10-24T11:34:01.538Z,14.12
2016-10-24T11:35:01.551Z,14.2
2016-10-24T11:36:01.678Z,14.12
2016-10-24T11:37:01.706Z,14.14
2016-10-24T11:38:01.833Z,14.08
2016-10-24T11:39:01.835Z,14.07
2016-10-24T11:40:01.847Z,14.08
2016-10-24T11:41:01.863Z,14.11
2016-10-24T11:42:01.864Z,14.11
2016-10-24T11:43:01.869Z,14.05
2016-10-24T11:44:01.875Z,14.05
2016-10-24T11:45:01.910Z,14.11
2016-10-24T11:46:01.900Z,14.04
2016-10-24T11:47:01.901Z,14.08
2016-10-24T11:48:01.899Z,14.11
2016-10-24T11:49:01.916Z,14.08
2016-10-24T11:50:01.928Z,14.12
2016-10-24T11:51:01.977Z,14.07
2016-10-24T11:52:01.967Z,14.03
2016-10-24T11:53:01.976Z,14.1
2016-10-24T11:54:01.986Z,14.07
2016-10-24T11:55:02.038Z,14.05
2016-10-24T11:56:02.101Z,14.1
2016-10-24T11:57:02.044Z,14.11
2016-10-24T11:58:02.053Z,14.08
2016-10-24T11:59:02.090Z,14
2016-10-24T12:00:02.104Z,14.04
2016-10-24T12:01:02.116Z,14.04
2016-10-24T12:02:02.115Z,14.04
2016-10-24T12:03:02.116Z,14.05
2016-10-24T12:04:02.100Z,14
2016-10-24T12:05:02.120Z,14
2016-10-24T12:06:02.271Z,14.03
2016-10-24T12:07:02.144Z,14.03
2016-10-24T12:08:02.173Z,14.03
2016-10-24T12:09:02.221Z,14
2016-10-24T12:10:02.213Z,14.05
2016-10-24T12:11:02.234Z,14.03
2016-10-24T12:12:02.243Z,13.96
2016-10-24T12:13:02.276Z,13.99
2016-10-24T12:14:02.291Z,14.04
2016-10-24T12:15:02.312Z,13.97
2016-10-24T12:16:02.322Z,14.04
2016-10-24T12:17:02.340Z,14.08
2016-10-24T12:18:02.374Z,13.95
2016-10-24T12:19:02.380Z,13.96
2016-10-24T12:20:02.399Z,13.96
2016-10-24T12:21:02.425Z,14.05
2016-10-24T12:22:02.437Z,13.99
2016-10-24T12:23:02.465Z,14
2016-10-24T12:24:02.471Z,14
2016-10-24T12:25:02.623Z,13.96
2016-10-24T12:26:02.638Z,14
2016-10-24T12:27:02.625Z,14.03
2016-10-24T12:28:02.635Z,13.92
2016-10-24T12:29:02.805Z,13.95
2016-10-24T12:30:02.806Z,13.95
2016-10-24T12:31:02.823Z,14.04
2016-10-24T12:32:02.862Z,14.04
2016-10-24T12:33:03.051Z,13.92
2016-10-24T12:34:03.058Z,14.03
2016-10-24T12:35:02.845Z,13.97
2016-10-24T12:36:02.885Z,13.97
2016-10-24T12:37:02.866Z,13.96
2016-10-24T12:38:02.842Z,13.97
2016-10-24T12:39:02.848Z,13.92
2016-10-24T12:40:03.118Z,13.9
2016-10-24T12:41:03.021Z,13.92
2016-10-24T12:42:02.946Z,13.9
2016-10-24T12:43:02.914Z,13.89
2016-10-24T12:44:02.957Z,13.92
2016-10-24T12:45:02.937Z,13.89
2016-10-24T12:46:02.975Z,13.87
2016-10-24T12:47:02.993Z,13.87
2016-10-24T12:48:02.999Z,13.9
2016-10-24T12:49:03.026Z,13.87
2016-10-24T12:50:03.037Z,13.87
2016-10-24T12:51:03.050Z,13.87
2016-10-24T12:52:03.053Z,13.81
2016-10-24T12:53:03.055Z,13.78
2016-10-24T12:54:03.038Z,13.77
2016-10-24T12:55:03.054Z,13.81
2016-10-24T12:56:03.080Z,13.81
2016-10-24T12:57:03.095Z,13.81
2016-10-24T12:58:03.159Z,13.79
2016-10-24T12:59:03.125Z,13.75
2016-10-24T13:00:03.148Z,13.74
2016-10-24T13:01:03.170Z,13.81
2016-10-24T13:02:03.190Z,13.81
2016-10-24T13:03:03.210Z,13.78
2016-10-24T13:04:03.228Z,13.75
2016-10-24T13:05:03.249Z,13.71
2016-10-24T13:06:03.274Z,13.81
2016-10-24T13:07:03.275Z,13.78
2016-10-24T13:08:03.307Z,13.78
2016-10-24T13:09:03.320Z,13.77
2016-10-24T13:10:03.336Z,13.77